Time,TemperatureF,DewpointF,PressureIn,WindDirection,WindDirectionDegrees,WindSpeedMPH,WindSpeedGustMPH,Humidity,HourlyPrecipIn,Conditions,Clouds,dailyrainin,SoftwareType,DateUTC
2013-01-01 00:02:00,34.8,22.7,29.53,North,-999,0.0,0.0,61,0.00,,,0.00,LWC V1.12 B30,2013-01-01 07:02:00,
2013-01-01 00:33:00,34.3,22.3,29.53,North,-999,0.0,0.0,61,0.00,,,0.00,LWC V1.12 B30,2013-01-01 07:33:00,
2013-01-01 01:03:00,33.9,21.5,29.53,North,-999,0.0,0.0,60,0.00,,,0.00,LWC V1.12 B30,2013-01-01 08:03:00,
2013-01-01 01:33:00,33.1,20.7,29.53,North,-999,0.0,0.0,60,0.00,,,0.00,LWC V1.12 B30,2013-01-01 08:33:00,
2013-01-01 02:03:00,32.5,20.2,29.53,North,-999,0.0,0.0,60,0.00,,,0.00,LWC V1.12 B30,2013-01-01 09:03:00,
2013-01-01 02:34:00,32.0,20.1,29.53,North,-999,0.0,0.0,61,0.00,,,0.00,LWC V1.12 B30,2013-01-01 09:34:00,
2013-01-01 03:04:00,31.5,19.6,29.53,North,-999,0.0,0.0,61,0.00,,,0.00,LWC V1.12 B30,2013-01-01 10:04:00,
2013-01-01 03:34:00,30.8,19.0,29.53,North,-999,0.0,0.0,61,0.00,,,0.00,LWC V1.12 B30,2013-01-01 10:34:00,
2013-01-01 04:04:00,30.4,18.6,29.53,North,-999,0.0,0.0,61,0.00,,,0.00,LWC V1.12 B30,2013-01-01 11:04:00,
2013-01-01 04:35:00,30.1,17.9,29.53,North,-999,0.0,0.0,60,0.00,,,0.00,LWC V1.12 B30,2013-01-01 11:35:00,
2013-01-01 05:05:00,29.6,17.4,29.53,North,-999,0.0,0.0,60,0.00,,,0.00,LWC V1.12 B30,2013-01-01 12:05:00,
2013-01-01 05:35:00,29.1,17.0,29.53,North,-999,0.0,0.0,60,0.00,,,0.00,LWC V1.12 B30,2013-01-01 12:35:00,
2013-01-01 06:05:00,28.6,16.5,29.53,North,-999,0.0,0.0,60,0.00,,,0.00,LWC V1.12 B30,2013-01-01 13:05:00,
2013-01-01 06:36:00,28.1,16.0,29.53,North,-999,0.0,0.0,60,0.00,,,0.00,LWC V1.12 B30,2013-01-01 13:36:00,
2013-01-01 07:06:00,27.4,15.7,29.53,North,-999,0.0,0.0,61,0.00,,,0.00,LWC V1.12 B30,2013-01-01 14:06:00,
2013-01-01 07:36:00,27.2,15.6,29.53,North,-999,0.0,0.0,61,0.00,,,0.00,LWC V1.12 B30,2013-01-01 14:36:00,
2013-01-01 08:06:00,27.7,15.7,29.53,North,-999,0.0,0.0,60,0.00,,,0.00,LWC V1.12 B30,2013-01-01 15:06:00,
2013-01-01 08:36:00,29.2,16.7,29.53,North,-999,0.0,0.0,59,0.00,,,0.00,LWC V1.12 B30,2013-01-01 15:36:00,
2013-01-01 09:07:00,30.1,16.3,29.53,North,-999,0.0,0.0,56,0.00,,,0.00,LWC V1.12 B30,2013-01-01 16:07:00,
2013-01-01 09:37:00,30.8,16.1,29.53,North,-999,0.0,0.0,54,0.00,,,0.00,LWC V1.12 B30,2013-01-01 16:37:00,
2013-01-01 10:07:00,31.9,16.7,29.53,North,-999,0.0,0.0,53,0.00,,,0.00,LWC V1.12 B30,2013-01-01 17:07:00,
2013-01-01 10:37:00,32.8,16.7,29.53,North,-999,0.0,0.0,51,0.00,,,0.00,LWC V1.12 B30,2013-01-01 17:37:00,
2013-01-01 11:08:00,33.8,16.7,29.53,North,-999,0.0,0.0,49,0.00,,,0.00,LWC V1.12 B30,2013-01-01 18:08:00,
2013-01-01 11:38:00,34.3,16.2,29.53,North,-999,0.0,0.0,47,0.00,,,0.00,LWC V1.12 B30,2013-01-01 18:38:00,
2013-01-01 12:08:00,35.3,17.1,29.53,North,-999,0.0,0.0,47,0.00,,,0.00,LWC V1.12 B30,2013-01-01 19:08:00,
2013-01-01 12:38:00,36.1,16.3,29.53,North,-999,0.0,0.0,44,0.00,,,0.00,LWC V1.12 B30,2013-01-01 19:38:00,
2013-01-01 13:09:00,36.9,16.0,29.53,North,-999,0.0,0.0,42,0.00,,,0.00,LWC V1.12 B30,2013-01-01 20:09:00,
2013-01-01 13:39:00,37.6,16.6,29.53,North,-999,0.0,0.0,42,0.00,,,0.00,LWC V1.12 B30,2013-01-01 20:39:00,
2013-01-01 14:09:00,37.7,16.1,29.53,North,-999,0.0,0.0,41,0.00,,,0.00,LWC V1.12 B30,2013-01-01 21:09:00,
2013-01-01 14:39:00,37.7,16.7,29.53,North,-999,0.0,0.0,42,0.00,,,0.00,LWC V1.12 B30,2013-01-01 21:39:00,
2013-01-01 15:10:00,36.5,15.1,29.53,North,-999,0.0,0.0,41,0.00,,,0.00,LWC V1.12 B30,2013-01-01 22:10:00,
2013-01-01 15:40:00,36.3,15.4,29.53,North,-999,0.0,0.0,42,0.00,,,0.00,LWC V1.12 B30,2013-01-01 22:40:00,
2013-01-01 16:10:00,35.9,14.5,29.53,North,-999,0.0,0.0,41,0.00,,,0.00,LWC V1.12 B30,2013-01-01 23:10:00,
2013-01-01 16:40:00,35.2,15.0,29.53,North,-999,0.0,0.0,43,0.00,,,0.00,LWC V1.12 B30,2013-01-01 23:40:00,
2013-01-01 17:11:00,34.4,14.2,29.53,North,-999,0.0,0.0,43,0.00,,,0.00,LWC V1.12 B30,2013-01-02 00:11:00,
2013-01-01 17:41:00,33.7,14.1,29.53,North,-999,0.0,0.0,44,0.00,,,0.00,LWC V1.12 B30,2013-01-02 00:41:00,
2013-01-01 18:41:00,32.5,13.0,29.53,North,-999,0.0,0.0,44,0.00,,,0.00,LWC V1.12 B30,2013-01-02 01:41:00,
2013-01-01 19:12:00,32.2,14.3,29.53,North,-999,0.0,0.0,47,0.00,,,0.00,LWC V1.12 B30,2013-01-02 02:12:00,
2013-01-01 19:42:00,31.8,13.4,29.53,North,-999,0.0,0.0,46,0.00,,,0.00,LWC V1.12 B30,2013-01-02 02:42:00,
2013-01-01 20:12:00,31.3,13.4,29.53,North,-999,0.0,0.0,47,0.00,,,0.00,LWC V1.12 B30,2013-01-02 03:12:00,
2013-01-01 20:42:00,31.0,13.6,29.53,North,-999,0.0,0.0,48,0.00,,,0.00,LWC V1.12 B30,2013-01-02 03:42:00,
2013-01-01 21:13:00,30.4,13.6,29.53,North,-999,0.0,0.0,49,0.00,,,0.00,LWC V1.12 B30,2013-01-02 04:13:00,
2013-01-01 21:43:00,30.1,14.2,29.53,North,-999,0.0,0.0,51,0.00,,,0.00,LWC V1.12 B30,2013-01-02 04:43:00,
2013-01-01 22:13:00,29.7,13.8,29.53,North,-999,0.0,0.0,51,0.00,,,0.00,LWC V1.12 B30,2013-01-02 05:13:00,
2013-01-01 22:43:00,29.2,13.8,29.53,North,-999,0.0,0.0,52,0.00,,,0.00,LWC V1.12 B30,2013-01-02 05:43:00,
2013-01-01 23:14:00,29.0,13.6,29.53,North,-999,0.0,0.0,52,0.00,,,0.00,LWC V1.12 B30,2013-01-02 06:14:00,
2013-01-01 23:44:00,28.6,13.7,29.53,North,-999,0.0,0.0,53,0.00,,,0.00,LWC V1.12 B30,2013-01-02 06:44:00,